Time;durP1;ratioP1;P1;durP2;ratioP2;P2;SDS_P1;SDS_P2;PMS_P1;PMS_P2;Temp;Humidity;BMP_temperature;BMP_pressure;BME280_temperature;BME280_humidity;BME280_pressure;Samples;Min_cycle;Max_cycle;Signal;HPM_P1;HPM_P2
2022/08/08 00:00:17;;;;;;;4.13;1.85;;;;;;;19.65;55.92;101463.44;5033693;28;20033;-73
2022/08/08 00:02:59;;;;;;;3.80;2.08;;;;;;;19.60;56.32;101460.94;5032442;28;20025;-73
2022/08/08 00:06:01;;;;;;;5.90;2.10;;;;;;;19.39;57.17;101459.16;5032282;28;20032;-73
2022/08/08 00:08:57;;;;;;;5.10;1.90;;;;;;;19.44;56.74;101462.50;5029906;28;20045;-73
2022/08/08 00:11:39;;;;;;;3.63;1.45;;;;;;;19.44;56.70;101457.16;5032269;28;20021;-73
2022/08/08 00:14:35;;;;;;;3.55;1.95;;;;;;;19.32;56.70;101463.00;5033227;28;20029;-73
2022/08/08 00:17:22;;;;;;;3.97;1.95;;;;;;;19.27;57.03;101454.31;5033468;28;20027;-74
2022/08/08 00:19:53;;;;;;;3.60;1.80;;;;;;;19.24;56.41;101455.31;5033299;28;20479;-73
2022/08/08 00:22:28;;;;;;;4.68;2.08;;;;;;;19.25;56.82;101456.19;5031928;28;20060;-74
2022/08/08 00:25:02;;;;;;;2.35;1.50;;;;;;;18.97;57.38;101456.44;5031986;28;20116;-73
2022/08/08 00:27:28;;;;;;;3.15;1.73;;;;;;;18.95;57.31;101452.03;5032998;28;20030;-74
2022/08/08 00:29:59;;;;;;;4.43;1.90;;;;;;;18.90;57.45;101451.34;5033315;28;20025;-74
2022/08/08 00:32:42;;;;;;;5.60;2.00;;;;;;;18.89;57.32;101454.94;5033571;28;20029;-73
2022/08/08 00:35:32;;;;;;;3.17;1.63;;;;;;;18.84;57.51;101446.25;5033202;28;20037;-73
2022/08/08 00:38:07;;;;;;;3.78;1.98;;;;;;;18.78;57.67;101450.94;5033096;28;20053;-73
2022/08/08 00:40:37;;;;;;;5.05;1.95;;;;;;;18.58;58.75;101446.34;5033123;28;20358;-74
2022/08/08 00:43:08;;;;;;;3.75;1.75;;;;;;;18.63;58.24;101455.03;5033039;28;20022;-74
2022/08/08 00:46:11;;;;;;;4.28;1.80;;;;;;;18.49;59.00;101457.34;5031852;28;20040;-74
2022/08/08 00:49:14;;;;;;;3.38;1.83;;;;;;;18.50;58.86;101449.31;5031932;28;20017;-73
2022/08/08 00:51:50;;;;;;;3.15;1.70;;;;;;;18.40;58.93;101448.78;5031755;28;20053;-74
2022/08/08 00:54:30;;;;;;;2.97;1.40;;;;;;;18.44;58.52;101447.75;5031749;28;20048;-74
2022/08/08 00:57:02;;;;;;;3.47;1.55;;;;;;;18.41;58.71;101445.19;5031881;28;20124;-73
2022/08/08 00:59:47;;;;;;;2.97;1.75;;;;;;;18.47;58.39;101444.09;5031601;28;20492;-74
2022/08/08 01:02:43;;;;;;;6.43;2.00;;;;;;;18.42;58.81;101438.94;5035536;28;20456;-73
2022/08/08 01:05:45;;;;;;;2.97;1.55;;;;;;;18.57;58.42;101434.00;5036822;28;20088;-73
2022/08/08 01:08:25;;;;;;;3.85;1.45;;;;;;;18.68;58.14;101442.44;5036561;28;20036;-73
2022/08/08 01:11:15;;;;;;;3.10;1.48;;;;;;;18.74;57.78;101434.22;5018854;28;20065;-74
2022/08/08 01:14:09;;;;;;;2.10;1.50;;;;;;;18.86;58.06;101431.06;5035228;28;20046;-73
2022/08/08 01:16:54;;;;;;;2.60;1.52;;;;;;;18.91;57.64;101429.13;5036374;28;20091;-73
2022/08/08 01:19:41;;;;;;;5.38;2.10;;;;;;;19.01;57.19;101431.41;5035186;28;20021;-74
2022/08/08 01:22:37;;;;;;;6.10;2.47;;;;;;;19.02;57.66;101427.81;5035071;28;20037;-73
2022/08/08 01:25:11;;;;;;;5.65;2.50;;;;;;;18.98;57.48;101423.53;5036175;28;20017;-73
2022/08/08 01:28:18;;;;;;;5.90;2.95;;;;;;;18.93;57.82;101424.59;5036243;28;20078;-73
2022/08/08 01:30:59;;;;;;;8.35;5.68;;;;;;;18.89;58.00;101430.09;5018481;28;20056;-74
2022/08/08 01:33:27;;;;;;;11.63;7.50;;;;;;;18.80;57.82;101426.00;5036003;28;20473;-74
2022/08/08 01:36:34;;;;;;;11.63;8.43;;;;;;;18.74;58.26;101430.69;5036057;28;20026;-73
2022/08/08 01:39:21;;;;;;;14.43;8.60;;;;;;;18.69;58.15;101436.16;5035666;28;20089;-73
2022/08/08 01:42:10;;;;;;;8.55;5.47;;;;;;;18.62;58.41;101438.19;5036067;28;20029;-73
2022/08/08 01:44:58;;;;;;;5.75;3.45;;;;;;;18.62;58.52;101440.84;5036172;28;20093;-73
2022/08/08 01:47:56;;;;;;;4.43;2.97;;;;;;;18.62;58.42;101440.00;5035807;28;20107;-73
2022/08/08 01:50:55;;;;;;;4.20;2.85;;;;;;;18.64;58.88;101436.34;5034951;28;20025;-73
2022/08/08 01:53:42;;;;;;;5.50;2.90;;;;;;;18.75;58.09;101429.75;5035649;28;20029;-73
2022/08/08 01:56:39;;;;;;;4.80;2.85;;;;;;;18.84;58.22;101432.94;5034360;28;20044;-73
2022/08/08 01:59:24;;;;;;;5.97;4.38;;;;;;;18.90;57.91;101434.50;5035834;28;20076;-73
2022/08/08 02:02:20;;;;;;;6.93;4.07;;;;;;;18.89;58.13;101430.97;5034393;28;20030;-73
2022/08/08 02:05:19;;;;;;;6.82;4.93;;;;;;;18.86;58.39;101433.75;5034376;28;20036;-73
2022/08/08 02:08:04;;;;;;;6.47;3.47;;;;;;;18.90;58.21;101430.03;5035476;28;20099;-73
2022/08/08 02:10:41;;;;;;;8.00;4.00;;;;;;;19.00;57.87;101430.53;5035360;28;20026;-74
2022/08/08 02:13:21;;;;;;;6.55;4.43;;;;;;;19.08;57.79;101432.91;5033236;28;20028;-73
2022/08/08 02:15:52;;;;;;;5.13;3.28;;;;;;;19.11;57.44;101428.31;5034138;28;20044;-73
2022/08/08 02:18:25;;;;;;;6.57;4.00;;;;;;;19.12;57.54;101434.50;5035360;28;20021;-73
2022/08/08 02:24:04;;;;;;;6.18;3.30;;;;;;;19.03;58.15;101426.88;5033883;28;20505;-73
2022/08/08 02:27:12;;;;;;;7.40;3.28;;;;;;;19.05;58.07;101433.03;5035248;28;20033;-73
2022/08/08 02:30:04;;;;;;;8.25;4.63;;;;;;;19.01;58.14;101436.75;5033342;28;20033;-73
2022/08/08 02:32:46;;;;;;;7.53;4.78;;;;;;;18.86;58.27;101439.06;5034040;28;20103;-73
2022/08/08 02:35:37;;;;;;;7.05;4.20;;;;;;;18.81;58.66;101435.72;5033749;28;20037;-73
2022/08/08 02:38:33;;;;;;;5.97;4.35;;;;;;;18.80;58.85;101436.66;5034790;28;20079;-73
2022/08/08 02:41:01;;;;;;;6.70;4.15;;;;;;;18.78;58.54;101441.16;5034729;28;20104;-73
2022/08/08 02:43:57;;;;;;;10.60;3.53;;;;;;;18.77;58.79;101438.56;5034884;28;20107;-73
2022/08/08 02:46:47;;;;;;;7.60;2.70;;;;;;;18.77;59.29;101439.44;5034912;28;20031;-73
2022/08/08 02:49:38;;;;;;;6.78;2.30;;;;;;;18.78;58.84;101451.81;5034726;28;20017;-73
2022/08/08 02:52:13;;;;;;;5.43;2.58;;;;;;;18.81;58.77;101443.72;5033297;28;20032;-73
2022/08/08 02:55:00;;;;;;;3.47;2.47;;;;;;;18.85;58.93;101447.13;5034430;28;20526;-73
2022/08/08 02:57:25;;;;;;;4.50;2.30;;;;;;;18.86;58.64;101443.53;5033152;28;20095;-73
2022/08/08 03:00:14;;;;;;;6.13;2.33;;;;;;;18.79;58.99;101437.59;5034560;28;20029;-73
2022/08/08 03:02:55;;;;;;;3.78;2.20;;;;;;;18.62;59.32;101442.66;5033121;28;20021;-73
2022/08/08 03:05:48;;;;;;;3.25;1.98;;;;;;;18.64;59.37;101438.16;5033022;28;20026;-73
2022/08/08 03:08:32;;;;;;;;;;;;;;;18.62;59.72;101440.84;5034795;28;20472;-73
2022/08/08 03:11:09;;;;;;;5.93;2.08;;;;;;;18.70;59.28;101437.94;5034208;28;19919;-73
2022/08/08 03:13:50;;;;;;;6.38;2.25;;;;;;;18.75;58.61;101430.66;5034129;28;20546;-74
2022/08/08 03:16:43;;;;;;;4.32;1.90;;;;;;;18.85;58.54;101431.16;5034297;28;20025;-74
2022/08/08 03:19:45;;;;;;;5.50;1.80;;;;;;;18.88;58.58;101428.38;5016260;28;20037;-73
2022/08/08 03:22:10;;;;;;;4.20;2.05;;;;;;;18.78;58.82;101435.84;5033072;28;20037;-74
2022/08/08 03:24:35;;;;;;;5.57;2.03;;;;;;;18.89;58.27;101433.63;5034040;28;20377;-74
2022/08/08 03:27:15;;;;;;;4.18;2.08;;;;;;;18.90;58.50;101430.03;5016222;28;20346;-74
2022/08/08 03:29:44;;;;;;;3.20;2.00;;;;;;;18.91;58.03;101430.88;5034055;28;20032;-74
2022/08/08 03:34:55;;;;;;;3.83;2.10;;;;;;;18.72;58.53;101422.78;5032904;28;20143;-74
2022/08/08 03:37:20;;;;;;;4.07;2.38;;;;;;;18.71;58.40;101434.34;5032604;28;20370;-73
2022/08/08 03:39:46;;;;;;;4.85;2.40;;;;;;;18.74;58.57;101428.91;5015886;28;20061;-73
2022/08/08 03:42:16;;;;;;;5.57;2.17;;;;;;;18.84;58.37;101432.09;5032479;28;20068;-74
2022/08/08 03:44:41;;;;;;;3.55;2.15;;;;;;;18.96;58.13;101434.25;5033830;28;20104;-74
2022/08/08 03:47:08;;;;;;;4.88;2.50;;;;;;;19.14;57.67;101445.97;5033626;28;20061;-73
2022/08/08 03:49:33;;;;;;;4.70;2.38;;;;;;;19.34;57.17;101440.69;5032469;28;20033;-73
2022/08/08 03:51:58;;;;;;;5.90;2.55;;;;;;;19.41;57.00;101439.50;5015902;28;20030;-74
2022/08/08 03:54:25;;;;;;;4.13;2.20;;;;;;;19.43;56.89;101440.31;5032389;28;20393;-74
2022/08/08 03:56:50;;;;;;;4.00;1.98;;;;;;;19.55;56.62;101444.28;5032246;28;20080;-73
2022/08/08 03:59:17;;;;;;;3.65;2.30;;;;;;;19.71;56.07;101444.53;5033631;28;20057;-73
2022/08/08 04:01:43;;;;;;;5.47;2.47;;;;;;;19.62;56.19;101443.09;5032317;28;20480;-73
2022/08/08 04:04:09;;;;;;;5.90;2.40;;;;;;;19.53;56.10;101446.13;5015925;28;20351;-73
2022/08/08 04:06:34;;;;;;;4.28;2.30;;;;;;;19.44;56.68;101450.03;5033472;28;20022;-74
2022/08/08 04:09:02;;;;;;;3.28;1.90;;;;;;;19.44;56.48;101451.84;5033635;28;20028;-74
2022/08/08 04:11:29;;;;;;;4.05;2.17;;;;;;;19.33;56.59;101457.59;5033441;28;20037;-74
2022/08/08 04:13:54;;;;;;;3.00;2.10;;;;;;;19.29;56.86;101456.00;5015810;28;20033;-74
2022/08/08 04:16:20;;;;;;;3.70;1.83;;;;;;;19.38;56.48;101463.59;5033362;28;20358;-73
2022/08/08 04:18:47;;;;;;;4.68;2.15;;;;;;;19.48;56.20;101457.91;5032145;28;20033;-73
2022/08/08 04:21:13;;;;;;;3.65;1.63;;;;;;;19.44;56.43;101463.38;5015919;28;20084;-73
2022/08/08 04:23:39;;;;;;;4.93;1.88;;;;;;;19.48;56.42;101458.78;5033340;28;20036;-73
2022/08/08 04:26:05;;;;;;;3.70;1.92;;;;;;;19.53;56.55;101456.78;5032028;28;20025;-73
2022/08/08 04:28:31;;;;;;;5.35;1.92;;;;;;;19.67;56.04;101467.78;5032139;28;20124;-73
2022/08/08 04:30:56;;;;;;;5.50;2.08;;;;;;;19.84;55.70;101464.38;5015580;28;20033;-74
2022/08/08 04:33:22;;;;;;;4.40;1.50;;;;;;;19.98;55.49;101470.91;5032193;28;20029;-74
2022/08/08 04:35:47;;;;;;;4.70;1.98;;;;;;;20.07;55.05;101463.38;5015829;28;20026;-73
2022/08/08 04:38:13;;;;;;;5.90;2.00;;;;;;;20.16;54.86;101462.09;5019318;28;20053;-73
2022/08/08 04:40:38;;;;;;;3.97;2.22;;;;;;;20.16;55.03;101462.97;5037015;28;20369;-74
2022/08/08 04:43:04;;;;;;;7.07;2.03;;;;;;;20.16;55.04;101462.97;5019319;28;20040;-74
2022/08/08 04:45:30;;;;;;;4.35;2.00;;;;;;;20.15;55.13;101463.06;5035727;28;20033;-74
2022/08/08 04:47:58;;;;;;;5.18;1.77;;;;;;;20.18;55.13;101468.22;5037010;28;20021;-73
2022/08/08 04:50:25;;;;;;;4.13;1.73;;;;;;;20.16;55.16;101472.78;5035764;28;20067;-75
2022/08/08 04:52:52;;;;;;;4.63;1.85;;;;;;;20.22;55.24;101471.63;5036726;28;20036;-74
2022/08/08 04:55:18;;;;;;;3.75;1.92;;;;;;;20.40;54.74;101463.66;5036875;28;20037;-74
2022/08/08 04:57:44;;;;;;;5.57;2.05;;;;;;;20.59;54.22;101460.19;5036951;28;20034;-75
2022/08/08 05:00:11;;;;;;;3.83;2.00;;;;;;;20.81;53.71;101471.59;5036691;28;20051;-74
2022/08/08 05:02:36;;;;;;;4.53;2.22;;;;;;;20.98;53.58;101467.25;5036666;28;20424;-74
2022/08/08 05:05:02;;;;;;;5.82;2.35;;;;;;;21.21;53.29;101467.00;5035477;28;20056;-74
2022/08/08 05:07:27;;;;;;;5.40;2.50;;;;;;;21.48;52.47;101451.44;5035555;28;20192;-73
2022/08/08 05:09:53;;;;;;;4.22;2.50;;;;;;;21.79;51.74;101461.47;5035533;28;20041;-74
2022/08/08 05:12:18;;;;;;;6.05;2.63;;;;;;;22.11;51.28;101464.28;5036485;28;20465;-74
2022/08/08 05:14:44;;;;;;;4.63;2.67;;;;;;;22.38;50.80;101465.50;5036459;28;20022;-74
2022/08/08 05:17:09;;;;;;;5.18;2.50;;;;;;;22.65;50.17;101466.75;5035260;28;20152;-74
2022/08/08 05:19:36;;;;;;;4.80;2.55;;;;;;;22.88;49.68;101464.53;5018667;28;20039;-74
2022/08/08 05:22:09;;;;;;;4.57;2.47;;;;;;;23.08;48.64;101465.25;5035987;28;20101;-73
2022/08/08 05:24:37;;;;;;;;;;;;;;;23.21;48.49;101466.28;5036501;28;20021;-74
2022/08/08 05:27:03;;;;;;;4.30;2.00;;;;;;;23.35;48.43;101469.03;5036003;28;20226;-73
2022/08/08 05:29:28;;;;;;;3.53;1.73;;;;;;;23.47;48.01;101466.59;5018199;28;20025;-74
2022/08/08 05:31:54;;;;;;;4.32;1.70;;;;;;;23.57;47.76;101467.78;5036221;28;20025;-72
2022/08/08 05:34:34;;;;;;;3.60;1.88;;;;;;;23.74;47.23;101467.69;5036336;28;20121;-74
2022/08/08 05:37:02;;;;;;;3.80;1.52;;;;;;;23.90;47.09;101472.09;5036241;28;20029;-74
2022/08/08 05:39:28;;;;;;;3.20;1.55;;;;;;;24.01;46.53;101473.19;5035953;28;20133;-74
2022/08/08 05:41:53;;;;;;;3.80;1.63;;;;;;;24.15;46.36;101468.81;5034921;28;20108;-74
2022/08/08 05:44:27;;;;;;;3.10;1.52;;;;;;;24.33;46.04;101467.66;5036069;28;20100;-74
2022/08/08 05:46:54;;;;;;;4.63;1.90;;;;;;;24.44;45.68;101470.59;5035837;28;20128;-74
2022/08/08 05:49:20;;;;;;;5.03;2.00;;;;;;;24.58;45.42;101470.59;5033643;28;20029;-74
2022/08/08 05:51:46;;;;;;;4.47;1.60;;;;;;;24.76;44.80;101473.06;5034585;28;20030;-74
2022/08/08 05:54:12;;;;;;;5.28;1.95;;;;;;;24.77;44.86;101474.78;5035657;28;20129;-74
2022/08/08 05:56:39;;;;;;;6.50;1.83;;;;;;;24.82;44.77;101473.53;5035732;28;20076;-73
2022/08/08 05:59:09;;;;;;;3.85;1.50;;;;;;;25.01;44.20;101485.78;5034374;28;20526;-74
2022/08/08 06:01:41;;;;;;;5.07;1.55;;;;;;;25.14;43.79;101470.63;5017734;28;20368;-73
2022/08/08 06:04:10;;;;;;;4.78;1.30;;;;;;;25.24;43.56;101477.09;5034321;28;20087;-74
2022/08/08 06:06:39;;;;;;;3.17;1.13;;;;;;;25.27;43.42;101479.59;5035531;28;20025;-73
2022/08/08 06:09:05;;;;;;;4.65;1.30;;;;;;;25.37;43.13;101482.53;5034174;28;20119;-73
2022/08/08 06:11:32;;;;;;;4.63;1.30;;;;;;;25.40;43.07;101481.47;5034141;28;20389;-72
2022/08/08 06:14:04;;;;;;;3.25;1.30;;;;;;;25.49;42.91;101483.53;5035362;28;20025;-74
2022/08/08 06:16:37;;;;;;;1.95;1.10;;;;;;;25.50;42.67;101488.84;5018137;28;20358;-73
2022/08/08 06:19:03;;;;;;;4.38;1.10;;;;;;;25.46;42.79;101487.31;5034046;28;20032;-73
2022/08/08 06:21:30;;;;;;;3.50;1.40;;;;;;;25.48;42.76;101493.44;5035016;28;20104;-71
2022/08/08 06:23:55;;;;;;;2.72;1.10;;;;;;;25.57;42.62;101491.97;5034079;28;20025;-73
2022/08/08 06:26:24;;;;;;;5.30;1.05;;;;;;;25.61;42.35;101490.78;5033748;28;20029;-73
2022/08/08 06:29:01;;;;;;;4.55;1.38;;;;;;;25.59;42.08;101484.66;5033726;28;20053;-72
2022/08/08 06:31:32;;;;;;;2.97;1.27;;;;;;;25.58;42.31;101491.00;5035215;28;20100;-72
2022/08/08 06:34:11;;;;;;;3.28;1.30;;;;;;;25.63;42.22;101496.94;5034990;28;20208;-73
2022/08/08 06:36:42;;;;;;;3.53;0.93;;;;;;;25.59;41.95;101498.13;5033729;28;20457;-72
2022/08/08 06:39:10;;;;;;;2.10;0.90;;;;;;;25.63;42.07;101498.78;5034795;28;20132;-72
2022/08/08 06:41:48;;;;;;;3.55;0.95;;;;;;;25.66;41.69;101491.34;5035054;28;20029;-73
2022/08/08 06:44:16;;;;;;;4.40;1.30;;;;;;;25.80;41.86;101501.22;5033608;28;20031;-73
2022/08/08 06:46:44;;;;;;;2.47;1.00;;;;;;;25.99;41.54;101500.81;5033560;28;20056;-72
2022/08/08 06:49:12;;;;;;;2.33;1.02;;;;;;;26.23;41.02;101504.50;5033589;28;20029;-72
2022/08/08 06:51:44;;;;;;;3.20;0.90;;;;;;;26.31;40.76;101500.41;5034680;28;20420;-73
2022/08/08 06:54:10;;;;;;;2.17;0.90;;;;;;;26.27;40.99;101499.75;5017209;28;20030;-73
2022/08/08 06:56:36;;;;;;;2.85;0.80;;;;;;;26.38;40.72;101502.56;5034751;28;20083;-72
2022/08/08 06:59:02;;;;;;;2.22;0.80;;;;;;;26.43;40.69;101499.56;5033990;28;20029;-72
2022/08/08 07:01:35;;;;;;;3.10;1.00;;;;;;;26.42;40.67;101498.69;5033332;28;20534;-73
2022/08/08 07:04:13;;;;;;;4.82;1.02;;;;;;;26.60;39.75;101499.22;5034768;28;20100;-72
2022/08/08 07:06:43;;;;;;;3.22;1.08;;;;;;;26.64;39.90;101492.66;5034346;28;20029;-72
2022/08/08 07:09:14;;;;;;;2.45;0.80;;;;;;;26.62;39.72;101493.75;5033183;28;20045;-73
2022/08/08 07:11:41;;;;;;;1.70;0.80;;;;;;;26.80;39.62;101496.94;5034516;28;20465;-73
2022/08/08 07:14:13;;;;;;;4.38;1.08;;;;;;;26.97;39.38;101493.88;5016664;28;20079;-72
2022/08/08 07:17:05;;;;;;;2.00;0.90;;;;;;;27.13;38.79;101499.91;5033045;28;20030;-72
2022/08/08 07:19:39;;;;;;;3.35;1.05;;;;;;;27.31;38.55;101503.06;5034311;28;20113;-72
2022/08/08 07:22:06;;;;;;;3.40;0.80;;;;;;;27.34;38.64;101500.16;5033823;28;20041;-72
2022/08/08 07:24:57;;;;;;;3.97;1.00;;;;;;;27.05;38.52;101501.41;5034160;28;20021;-71
2022/08/08 07:27:25;;;;;;;2.58;0.93;;;;;;;26.86;39.47;101508.16;5034100;28;20032;-72
2022/08/08 07:29:51;;;;;;;4.43;1.00;;;;;;;26.80;39.15;101507.72;5016631;28;20025;-72
2022/08/08 07:32:17;;;;;;;3.85;0.90;;;;;;;26.36;39.85;101514.41;5016478;28;20032;-73
2022/08/08 07:34:43;;;;;;;2.88;1.15;;;;;;;26.27;39.71;101516.78;5016185;28;20041;-73
2022/08/08 07:37:11;;;;;;;2.40;1.05;;;;;;;26.33;39.39;101510.09;5033883;28;20037;-73
2022/08/08 07:39:40;;;;;;;3.25;0.85;;;;;;;26.65;38.99;101513.25;5033532;28;20046;-72
2022/08/08 07:42:10;;;;;;;3.92;0.68;;;;;;;26.72;38.79;101511.84;5033890;28;20072;-73
2022/08/08 07:44:37;;;;;;;2.13;0.57;;;;;;;26.98;38.68;101506.41;5032473;28;20022;-73
2022/08/08 07:47:02;;;;;;;3.45;0.63;;;;;;;26.88;38.53;101510.72;5032397;28;20069;-72
2022/08/08 07:49:28;;;;;;;4.90;1.00;;;;;;;26.80;38.19;101510.44;5032536;28;20563;-72
2022/08/08 07:51:56;;;;;;;3.53;0.70;;;;;;;26.98;37.74;101512.66;5033504;28;20376;-74
2022/08/08 07:54:41;;;;;;;1.73;0.60;;;;;;;27.00;36.58;101509.84;5032226;28;20033;-74
2022/08/08 07:57:45;;;;;;;3.55;0.88;;;;;;;26.52;37.69;101512.41;5032339;28;20025;-73
2022/08/08 08:00:14;;;;;;;3.80;0.70;;;;;;;26.74;37.91;101515.28;5021772;28;20041;-72
2022/08/08 08:02:43;;;;;;;3.47;0.70;;;;;;;26.64;37.62;101516.06;5033481;28;20473;-72
2022/08/08 08:05:26;;;;;;;3.70;0.70;;;;;;;26.53;37.08;101516.81;5033569;28;20021;-65
2022/08/08 08:07:53;;;;;;;;;;;;;;;26.64;36.74;101518.75;5032733;28;20021;-72
2022/08/08 08:10:19;;;;;;;3.30;0.70;;;;;;;26.93;36.57;101517.53;5033152;28;19909;-72
2022/08/08 08:12:53;;;;;;;5.10;1.20;;;;;;;26.74;35.98;101512.59;5033189;28;20029;-71
2022/08/08 08:15:24;;;;;;;4.10;0.70;;;;;;;27.09;36.69;101522.66;5033388;28;20022;-72
2022/08/08 08:17:53;;;;;;;2.65;0.70;;;;;;;27.70;36.06;101519.97;5032064;28;20473;-72
2022/08/08 08:20:20;;;;;;;1.73;0.70;;;;;;;28.06;35.27;101520.84;5033413;28;20029;-72
2022/08/08 08:22:49;;;;;;;2.97;0.90;;;;;;;28.20;34.10;101512.50;5032063;28;20084;-72
2022/08/08 08:25:17;;;;;;;2.08;0.70;;;;;;;28.30;34.54;101518.94;5032053;28;20477;-72
2022/08/08 08:27:43;;;;;;;1.48;0.77;;;;;;;28.52;34.67;101509.16;5032331;28;20120;-72
2022/08/08 08:30:08;;;;;;;3.03;0.77;;;;;;;28.69;34.64;101514.94;5033376;28;20109;-76
2022/08/08 08:32:34;;;;;;;1.88;0.60;;;;;;;28.70;34.16;101511.25;5033392;28;20033;-76
2022/08/08 08:35:00;;;;;;;1.70;0.95;;;;;;;28.77;34.55;101517.03;5032982;28;20022;-76
2022/08/08 08:37:26;;;;;;;1.50;0.63;;;;;;;28.83;33.75;101516.53;5033312;28;20026;-77
2022/08/08 08:39:51;;;;;;;3.38;0.70;;;;;;;28.54;33.57;101526.97;5032869;28;20053;-76
2022/08/08 08:42:17;;;;;;;1.70;0.60;;;;;;;28.01;33.97;101518.50;5033241;28;20040;-77
2022/08/08 08:44:43;;;;;;;3.58;1.00;;;;;;;27.60;33.67;101527.88;5031901;28;20014;-77
2022/08/08 08:47:09;;;;;;;3.78;0.98;;;;;;;27.19;34.72;101522.88;5033269;28;20424;-77
2022/08/08 08:49:34;;;;;;;2.88;0.88;;;;;;;27.22;34.08;101526.22;5031929;28;20029;-78
2022/08/08 08:52:05;;;;;;;2.67;0.70;;;;;;;27.34;33.81;101523.59;5032021;28;20112;-76
2022/08/08 08:54:33;;;;;;;5.28;0.90;;;;;;;27.90;33.99;101523.88;5033145;28;20120;-76
2022/08/08 08:57:00;;;;;;;2.65;0.50;;;;;;;28.35;33.53;101515.88;5032831;28;20037;-77
2022/08/08 08:59:29;;;;;;;2.33;0.70;;;;;;;28.60;32.95;101521.06;5033117;28;20053;-77
2022/08/08 09:01:57;;;;;;;3.38;1.00;;;;;;;27.90;32.85;101523.88;5033333;28;20101;-76
2022/08/08 09:04:25;;;;;;;2.88;1.10;;;;;;;27.60;33.11;101530.56;5031872;28;20034;-75
2022/08/08 09:06:52;;;;;;;1.90;0.88;;;;;;;27.61;34.28;101523.34;5031769;28;20033;-75
2022/08/08 09:09:28;;;;;;;2.40;0.90;;;;;;;27.73;33.98;101522.44;5031532;28;20033;-76
2022/08/08 09:11:55;;;;;;;5.88;0.98;;;;;;;27.76;34.29;101530.31;5032854;28;20022;-76
2022/08/08 09:14:23;;;;;;;7.68;0.95;;;;;;;27.92;34.30;101524.59;5032674;28;20029;-76
2022/08/08 09:16:53;;;;;;;1.70;0.85;;;;;;;27.87;33.88;101524.09;5032810;28;20060;-76
2022/08/08 09:19:18;;;;;;;3.08;0.85;;;;;;;27.70;33.82;101526.22;5032797;28;20385;-77
2022/08/08 09:21:45;;;;;;;3.05;0.95;;;;;;;27.60;34.14;101525.19;5031537;28;20041;-77
2022/08/08 09:24:13;;;;;;;2.53;0.80;;;;;;;27.34;34.64;101518.19;5036433;28;20469;-77
2022/08/08 09:26:52;;;;;;;1.92;0.70;;;;;;;27.35;34.22;101526.16;5036289;28;20115;-76
2022/08/08 09:29:23;;;;;;;2.08;0.75;;;;;;;27.60;34.59;101525.19;5035106;28;20033;-76
2022/08/08 09:31:54;;;;;;;3.17;0.80;;;;;;;27.73;34.73;101528.72;5034909;28;20029;-77
2022/08/08 09:34:25;;;;;;;3.20;0.90;;;;;;;27.97;34.40;101525.13;5036512;28;20029;-76
2022/08/08 09:37:01;;;;;;;1.65;0.55;;;;;;;28.17;33.99;101523.59;5036262;28;20385;-77
2022/08/08 09:39:34;;;;;;;2.47;0.90;;;;;;;28.10;33.83;101523.19;5036069;28;20049;-77
2022/08/08 09:42:03;;;;;;;3.45;1.00;;;;;;;28.05;34.20;101533.50;5036072;28;20104;-77
2022/08/08 09:44:57;;;;;;;5.35;1.00;;;;;;;27.98;34.29;101532.25;5034662;28;20033;-76
2022/08/08 09:47:27;;;;;;;2.17;0.93;;;;;;;27.79;34.71;101535.47;5035915;28;20024;-77
2022/08/08 09:49:55;;;;;;;3.30;0.85;;;;;;;27.23;35.24;101536.03;5036038;28;20466;-76
2022/08/08 09:52:25;;;;;;;3.05;0.80;;;;;;;26.91;36.01;101534.78;5035801;28;20029;-76
2022/08/08 09:54:51;;;;;;;3.28;1.00;;;;;;;26.45;36.64;101538.94;5035525;28;20111;-77
2022/08/08 09:57:30;;;;;;;3.67;0.98;;;;;;;26.56;36.42;101538.16;5034524;28;20041;-77
2022/08/08 09:59:59;;;;;;;4.45;1.00;;;;;;;26.39;36.94;101538.47;5035897;28;20048;-76
2022/08/08 10:02:33;;;;;;;1.98;0.80;;;;;;;26.56;36.58;101540.84;5034648;28;20034;-77
2022/08/08 10:05:20;;;;;;;3.97;0.68;;;;;;;26.64;36.92;101537.63;5034409;28;20560;-77
2022/08/08 10:07:52;;;;;;;3.97;1.00;;;;;;;26.73;36.74;101535.16;5035538;28;20033;-78
2022/08/08 10:10:23;;;;;;;3.47;0.60;;;;;;;26.65;36.68;101536.63;5034414;28;20113;-78
2022/08/08 10:12:49;;;;;;;3.22;1.30;;;;;;;26.77;36.81;101539.34;5035452;28;20033;-78
2022/08/08 10:15:15;;;;;;;3.25;0.80;;;;;;;26.83;36.75;101535.34;5034122;28;20022;-77
2022/08/08 10:17:52;;;;;;;1.17;0.70;;;;;;;26.75;36.67;101537.72;5017790;28;20420;-78
2022/08/08 10:20:20;;;;;;;2.25;0.98;;;;;;;26.86;36.90;101536.97;5034658;28;20083;-78
2022/08/08 10:22:57;;;;;;;1.63;0.68;;;;;;;26.91;36.56;101537.47;5035102;28;20094;-77
2022/08/08 10:25:23;;;;;;;1.40;0.70;;;;;;;26.87;36.54;101542.22;5035365;28;20030;-78
2022/08/08 10:27:58;;;;;;;3.35;0.75;;;;;;;26.86;36.62;101537.81;5035460;28;20026;-77
2022/08/08 10:30:25;;;;;;;2.20;0.75;;;;;;;26.93;36.77;101539.09;5033833;28;20040;-79
2022/08/08 10:32:53;;;;;;;2.40;0.73;;;;;;;26.89;36.73;101539.41;5035280;28;20025;-78
2022/08/08 10:35:22;;;;;;;3.92;1.10;;;;;;;26.76;36.91;101534.91;5034287;28;20032;-77
2022/08/08 10:38:00;;;;;;;1.98;0.80;;;;;;;26.73;36.87;101537.84;5034975;28;20024;-77
2022/08/08 10:40:28;;;;;;;3.60;1.05;;;;;;;26.68;36.99;101534.59;5035238;28;20036;-77
2022/08/08 10:43:04;;;;;;;2.22;0.80;;;;;;;26.65;37.06;101532.13;5035713;28;20056;-75
2022/08/08 10:45:42;;;;;;;4.65;1.00;;;;;;;26.64;36.94;101538.47;5033541;28;20144;-76
2022/08/08 10:48:10;;;;;;;2.55;0.90;;;;;;;26.67;37.14;101530.19;5017018;28;20033;-77
2022/08/08 10:50:37;;;;;;;3.10;0.90;;;;;;;26.71;37.04;101528.97;5033575;28;20049;-76
2022/08/08 10:53:11;;;;;;;3.53;0.80;;;;;;;26.78;37.12;101537.50;5034724;28;20033;-73
2022/08/08 10:55:38;;;;;;;2.40;0.88;;;;;;;26.79;36.92;101528.44;5034814;28;20029;-75
2022/08/08 10:58:07;;;;;;;2.50;0.90;;;;;;;26.86;36.83;101529.72;5033241;28;20116;-75
2022/08/08 11:00:33;;;;;;;2.58;0.93;;;;;;;26.89;36.85;101534.00;5034374;28;20028;-74
2022/08/08 11:03:11;;;;;;;3.90;0.93;;;;;;;27.01;36.55;101530.47;5033333;28;20049;-74
2022/08/08 11:05:50;;;;;;;2.20;0.90;;;;;;;27.06;36.24;101522.88;5033127;28;20440;-73
2022/08/08 11:08:27;;;;;;;3.20;1.10;;;;;;;27.18;36.53;101530.09;5034341;28;20542;-74
2022/08/08 11:11:03;;;;;;;1.70;1.10;;;;;;;27.22;36.34;101526.22;5034538;28;20025;-74
2022/08/08 11:13:28;;;;;;;1.35;0.70;;;;;;;27.26;36.55;101526.84;5034213;28;20044;-74
2022/08/08 11:15:54;;;;;;;2.08;1.00;;;;;;;27.23;35.98;101530.63;5034200;28;20381;-73
2022/08/08 11:18:23;;;;;;;3.35;1.00;;;;;;;27.25;36.26;101536.78;5032755;28;20079;-74
2022/08/08 11:20:49;;;;;;;2.53;0.70;;;;;;;27.26;36.38;101527.72;5033004;28;20018;-74
2022/08/08 11:23:20;;;;;;;1.88;0.93;;;;;;;27.33;36.30;101529.94;5033873;28;20422;-74
2022/08/08 11:25:46;;;;;;;3.58;0.88;;;;;;;27.45;36.08;101529.06;5032824;28;20128;-72
2022/08/08 11:28:13;;;;;;;4.18;1.90;;;;;;;27.53;35.74;101526.63;5034070;28;20032;-73
2022/08/08 11:30:39;;;;;;;2.28;1.15;;;;;;;27.56;35.99;101531.78;5032562;28;20553;-73
2022/08/08 11:33:06;;;;;;;5.35;1.45;;;;;;;27.63;35.76;101538.44;5016120;28;20091;-73
2022/08/08 11:35:32;;;;;;;5.43;1.40;;;;;;;27.64;35.50;101532.06;5033883;28;20025;-73
2022/08/08 11:37:58;;;;;;;5.43;1.50;;;;;;;27.62;35.40;101534.03;5015995;28;20053;-73
2022/08/08 11:40:24;;;;;;;3.05;1.00;;;;;;;27.59;35.41;101531.56;5033905;28;20037;-74
2022/08/08 11:42:51;;;;;;;2.58;1.00;;;;;;;27.70;35.30;101528.91;5032748;28;20113;-74
2022/08/08 11:45:20;;;;;;;1.42;0.73;;;;;;;27.78;34.79;101531.06;5033264;28;20056;-75
2022/08/08 11:47:46;;;;;;;3.10;1.00;;;;;;;27.92;35.22;101530.00;5033594;28;20044;-73
2022/08/08 11:50:18;;;;;;;1.83;0.80;;;;;;;28.19;34.82;101521.59;5032703;28;20036;-73
2022/08/08 11:52:45;;;;;;;2.95;0.70;;;;;;;28.38;34.12;101526.47;5033735;28;20081;-73
2022/08/08 11:55:17;;;;;;;2.28;1.10;;;;;;;28.46;33.82;101518.63;5032496;28;20429;-71
2022/08/08 11:57:43;;;;;;;2.80;1.00;;;;;;;28.81;33.83;101517.66;5016146;28;20045;-73
2022/08/08 12:00:17;;;;;;;2.90;0.88;;;;;;;29.08;32.50;101515.41;5032365;28;20037;-73